aviador You're here:

KLXT Decoded Metar

LEES SUMMIT MUNI in MO, USA
Report Time2018-05-20 19:20:00
UTC Time2018-05-20 19:37:41
Flight Rules vfr VFR
Wind320° at 04 kt
W.Decomp.*RWY 29: 3.5 kt HW 1.9 kt RCW
RWY 36: 3.0 kt HW 2.7 kt LCW
W.Rank320° ranks 20
Current wind is below 320° avg. (9.0)
Visibility9999 m
Phenomena:N/A
Clouds:Scattered 022 Hf
Broken 110 Hf
Expected CloudBase > 1,600 ft AGL from Temp-Dew spread
Ceiling11,000 ft
Temp22°C (ISA +9)
Dew Point18°C (78% RH)
QNH1018 hPa
Density Alt2,159 ft
Elevation1,004 ft
Report Wrong Elevation
Raw Report
KLXT 201920Z AUTO 32004KT 10SM SCT022 BKN110 22/18 A3006 RMK AO2
T02220183=

Extra information for KLXT:More info

Metar Taf Metar & Taf Last 4 Metars F.Rules Stats Wind Profile Meteogram Temp Stats Airport Information Weather charts Add Link Nearby VenuesMetar ALERT Operation Metar Decoded Social comments

AIRNAV info for KLXT